Scruggs, Virginia
Current Conditions -  °F | °C
As of 4:54 AM on Saturday 29 Nov 2014 (Local Time) from KROA Reporting Station
Clear Clear  
Wind Chill: 27°   Ceiling: Unl
Heat Index: 27°   Visibility: 10mi
Dew Point: 22°   Wind: 3mph
Humidity: 81%   Direction: 30°NNE
Pressure: 30.25"   Gusts: NA
Location:  37.2404°N, 79.6336°W
Report Text: KROA 290954Z 03003KT 10SM CLR M03/M06 A3025 RMK AO2 SLP253 T10281056
Loading
Personal Weather Stations






























Interactive Weather Map New forecast layout! Learn more

10-Day Weather Forecast

Advertisements
Track Severe Weather on mobile